Time;durP1;ratioP1;P1;durP2;ratioP2;P2;SDS_P1;SDS_P2;PMS_P1;PMS_P2;Temp;Humidity;BMP_temperature;BMP_pressure;BME280_temperature;BME280_humidity;BME280_pressure;Samples;Min_cycle;Max_cycle;Signal;HPM_P1;HPM_P2
2021/09/22 00:03:10;;;;;;;12.88;7.38;;;;;;;10.87;68.49;101754.13;8661497;33;20184;-74
2021/09/22 00:08:13;;;;;;;16.58;8.45;;;;;;;10.68;68.91;101749.00;8661276;33;20245;-75
2021/09/22 00:13:16;;;;;;;13.55;8.55;;;;;;;10.70;69.19;101757.84;8659732;33;20157;-74
2021/09/22 00:18:21;;;;;;;14.07;7.95;;;;;;;10.44;69.78;101762.06;8660813;33;20673;-74
2021/09/22 00:23:24;;;;;;;13.25;8.02;;;;;;;10.50;70.32;101749.13;8660387;33;20145;-74
2021/09/22 00:28:27;;;;;;;12.65;7.65;;;;;;;10.54;70.00;101758.75;8660852;33;20697;-72
2021/09/22 00:33:33;;;;;;;14.93;9.00;;;;;;;10.60;70.11;101752.13;8661347;33;20191;-73
2021/09/22 00:38:36;;;;;;;12.77;8.80;;;;;;;10.55;70.37;101747.03;8661675;33;20596;-73
2021/09/22 00:43:39;;;;;;;13.50;8.57;;;;;;;10.55;70.46;101751.53;8660286;33;20585;-73
2021/09/22 00:48:44;;;;;;;15.90;8.52;;;;;;;10.48;70.66;101740.31;8660392;33;21016;-73
2021/09/22 00:53:47;;;;;;;18.98;9.32;;;;;;;10.66;70.33;101740.16;8658407;33;21614;-73
2021/09/22 00:58:51;;;;;;;13.32;9.20;;;;;;;10.63;70.34;101741.19;8658890;33;20681;-73
2021/09/22 01:03:56;;;;;;;16.50;8.77;;;;;;;10.60;70.62;101742.25;8658084;33;20639;-73
2021/09/22 01:09:00;;;;;;;19.50;9.23;;;;;;;10.79;70.05;101736.63;8658524;33;20453;-74
2021/09/22 01:14:04;;;;;;;18.17;9.95;;;;;;;10.64;70.43;101732.19;8659156;33;20679;-74
2021/09/22 01:19:08;;;;;;;15.52;9.10;;;;;;;10.54;70.98;101729.19;8657908;33;20184;-74
2021/09/22 01:24:13;;;;;;;20.67;9.07;;;;;;;10.44;71.63;101732.50;8657393;33;20148;-73
2021/09/22 01:29:18;;;;;;;15.38;9.65;;;;;;;10.53;71.22;101732.84;8658445;33;20188;-73
2021/09/22 01:34:26;;;;;;;13.80;9.50;;;;;;;10.56;71.38;101732.66;8657366;33;20401;-73
2021/09/22 01:39:56;;;;;;;16.58;9.38;;;;;;;10.54;71.31;101736.38;8655600;33;20190;-73
2021/09/22 01:45:04;;;;;;;16.23;9.65;;;;;;;10.46;71.71;101733.28;8658924;33;20243;-74
2021/09/22 01:50:14;;;;;;;15.00;9.40;;;;;;;10.51;71.73;101736.56;8657571;33;20188;-74
2021/09/22 01:55:23;;;;;;;18.25;10.45;;;;;;;10.52;71.84;101727.53;8657138;33;20166;-74
2021/09/22 02:00:38;;;;;;;18.45;10.77;;;;;;;10.68;71.53;101730.19;8657182;33;20764;-74
2021/09/22 02:05:46;;;;;;;16.60;9.23;;;;;;;10.70;71.52;101721.06;8656823;33;20695;-74
2021/09/22 02:10:57;;;;;;;16.10;9.18;;;;;;;10.51;72.51;101709.69;8657071;33;20177;-74
2021/09/22 02:16:01;;;;;;;15.68;9.45;;;;;;;10.36;73.42;101711.47;8656251;33;20238;-75
2021/09/22 02:21:10;;;;;;;14.27;8.55;;;;;;;10.34;73.32;101705.34;8658470;33;20269;-74
2021/09/22 02:26:16;;;;;;;16.65;10.02;;;;;;;10.08;74.39;101706.84;8656267;33;20187;-74
2021/09/22 02:31:20;;;;;;;18.23;9.75;;;;;;;10.14;73.90;101715.41;8657907;33;20157;-74
2021/09/22 02:36:44;;;;;;;14.50;9.75;;;;;;;10.02;74.07;101715.25;8657136;33;20720;-75
2021/09/22 02:41:50;;;;;;;15.43;9.70;;;;;;;10.12;73.66;101735.25;8656327;33;20177;-74
2021/09/22 02:46:54;;;;;;;17.70;9.80;;;;;;;9.95;73.83;101725.47;8656191;33;20175;-74
2021/09/22 02:51:57;;;;;;;17.42;10.07;;;;;;;10.03;74.00;101717.84;8656474;33;20431;-74
2021/09/22 02:57:02;;;;;;;18.77;10.00;;;;;;;9.97;74.62;101720.88;8655823;33;20640;-74
2021/09/22 03:02:05;;;;;;;16.55;10.55;;;;;;;10.15;74.22;101722.53;8655760;33;20234;-74
2021/09/22 03:07:09;;;;;;;20.73;11.10;;;;;;;10.21;74.00;101729.34;8656037;33;20511;-74
2021/09/22 03:12:14;;;;;;;20.58;11.27;;;;;;;10.30;73.95;101712.69;8655868;33;21592;-74
2021/09/22 03:17:17;;;;;;;23.00;11.60;;;;;;;10.21;74.38;101713.25;8657982;33;20187;-74
2021/09/22 03:22:21;;;;;;;20.40;11.82;;;;;;;10.11;74.77;101706.66;8662013;33;20248;-74
2021/09/22 03:27:47;;;;;;;22.80;12.10;;;;;;;10.17;74.80;101709.88;8660154;33;20677;-75
2021/09/22 03:32:53;;;;;;;22.83;13.25;;;;;;;10.24;74.86;101702.31;8661819;33;20569;-75
2021/09/22 03:37:58;;;;;;;26.02;13.60;;;;;;;10.23;74.83;101705.97;8661780;33;20681;-75
2021/09/22 03:43:03;;;;;;;23.30;12.73;;;;;;;10.30;74.86;101714.50;8659958;33;20197;-74
2021/09/22 03:48:06;;;;;;;26.25;13.43;;;;;;;10.47;74.78;101708.13;8659970;33;20149;-74
2021/09/22 03:53:11;;;;;;;27.75;13.70;;;;;;;10.60;74.42;101703.75;8659478;33;20517;-74
2021/09/22 03:58:19;;;;;;;25.85;14.00;;;;;;;10.59;74.39;101704.72;8659827;33;20163;-74
2021/09/22 04:03:23;;;;;;;25.58;13.45;;;;;;;10.56;74.61;101716.53;8659182;33;20342;-74
2021/09/22 04:08:26;;;;;;;23.98;13.15;;;;;;;10.61;74.86;101718.91;8659731;33;20446;-75
2021/09/22 04:13:31;;;;;;;24.73;13.65;;;;;;;10.56;75.08;101718.34;8661102;33;20537;-74
2021/09/22 04:18:34;;;;;;;22.98;13.60;;;;;;;10.63;75.23;101718.84;8659082;33;20226;-74
2021/09/22 04:23:38;;;;;;;26.58;13.43;;;;;;;10.68;75.31;101722.97;8659255;33;20191;-74
2021/09/22 04:28:42;;;;;;;23.00;13.07;;;;;;;10.76;75.52;101726.06;8658888;33;20181;-74
2021/09/22 04:34:14;;;;;;;26.13;13.07;;;;;;;10.83;75.43;101718.47;8609091;33;20527;-74
2021/09/22 04:39:36;;;;;;;24.83;13.20;;;;;;;10.83;75.42;101714.00;8660571;33;20180;-74
2021/09/22 04:45:01;;;;;;;26.08;14.68;;;;;;;10.82;75.01;101716.75;8629953;33;20184;-75
2021/09/22 04:50:25;;;;;;;28.48;14.80;;;;;;;10.80;75.20;101713.31;8659971;33;20184;-74
2021/09/22 04:55:55;;;;;;;28.52;14.38;;;;;;;10.72;75.69;101712.91;8637027;33;20242;-74
2021/09/22 05:01:18;;;;;;;24.80;14.07;;;;;;;10.57;76.31;101723.63;8659594;33;20357;-74
2021/09/22 05:06:40;;;;;;;24.05;13.40;;;;;;;10.64;75.92;101729.50;8660591;33;20418;-74
2021/09/22 05:12:02;;;;;;;20.67;12.48;;;;;;;10.60;75.44;101723.44;8659723;33;20538;-74
2021/09/22 05:17:25;;;;;;;22.33;13.07;;;;;;;10.27;75.81;101746.94;8659893;33;20192;-74
2021/09/22 05:22:47;;;;;;;33.08;16.55;;;;;;;10.39;75.38;101741.72;8660269;33;20192;-74
2021/09/22 05:28:08;;;;;;;30.27;14.70;;;;;;;10.43;74.56;101736.16;8660794;33;20686;-74
2021/09/22 05:33:35;;;;;;;27.30;13.25;;;;;;;10.30;75.19;101749.44;8644834;33;20597;-73
2021/09/22 05:38:57;;;;;;;28.10;14.93;;;;;;;10.33;74.81;101749.25;8658455;33;20227;-73
2021/09/22 05:44:19;;;;;;;24.02;14.05;;;;;;;10.32;74.81;101758.28;8658983;33;20267;-74
2021/09/22 05:49:42;;;;;;;28.35;14.48;;;;;;;10.31;74.50;101770.84;8659044;33;20145;-73
2021/09/22 05:55:05;;;;;;;27.35;13.35;;;;;;;10.41;74.04;101764.94;8657928;33;20188;-73
2021/09/22 06:00:26;;;;;;;29.10;14.75;;;;;;;10.47;74.07;101769.94;8660151;33;20137;-74
2021/09/22 06:05:50;;;;;;;24.65;14.75;;;;;;;10.52;74.21;101779.44;8714480;33;20936;-73
2021/09/22 06:11:06;;;;;;;28.33;15.45;;;;;;;10.57;73.33;101779.19;8673448;33;20456;-73
2021/09/22 06:16:28;;;;;;;28.30;16.42;;;;;;;10.60;73.85;101768.25;8663160;33;20187;-73
2021/09/22 06:21:43;;;;;;;29.52;16.23;;;;;;;10.51;74.11;101774.19;8683895;33;20330;-72
2021/09/22 06:27:10;;;;;;;31.80;17.52;;;;;;;10.48;74.36;101764.47;8684297;33;20188;-74
2021/09/22 06:32:13;;;;;;;33.15;17.70;;;;;;;10.49;74.36;101774.25;8675532;33;20187;-74
2021/09/22 06:37:37;;;;;;;35.03;17.48;;;;;;;10.60;74.37;101768.25;8679227;33;21453;-73
2021/09/22 06:42:45;;;;;;;34.08;17.52;;;;;;;10.83;73.63;101773.13;8680949;33;20262;-73
2021/09/22 06:47:51;;;;;;;35.92;19.27;;;;;;;11.04;72.96;101770.94;8685816;33;20170;-73
2021/09/22 06:52:55;;;;;;;39.30;18.75;;;;;;;11.23;72.18;101775.25;8701879;33;20256;-74
2021/09/22 06:57:59;;;;;;;39.35;19.88;;;;;;;11.29;72.07;101769.47;8720298;33;20167;-74
2021/09/22 07:03:02;;;;;;;39.08;18.95;;;;;;;11.31;72.36;101774.78;8719612;33;20184;-73
2021/09/22 07:08:07;;;;;;;38.25;18.42;;;;;;;11.28;72.32;101773.13;8720546;33;20696;-74
2021/09/22 07:13:12;;;;;;;37.63;19.55;;;;;;;11.50;71.85;101778.91;8718285;33;20180;-74
2021/09/22 07:18:18;;;;;;;35.83;19.83;;;;;;;11.61;71.65;101785.44;8720117;33;21571;-73
2021/09/22 07:23:23;;;;;;;33.15;19.40;;;;;;;11.65;71.56;101789.66;8719713;33;20528;-74
2021/09/22 07:28:26;;;;;;;37.30;20.33;;;;;;;11.68;71.94;101797.53;8715678;33;20701;-74
2021/09/22 07:33:29;;;;;;;34.38;18.80;;;;;;;11.91;71.36;101804.16;8662704;33;20283;-72
2021/09/22 07:38:34;;;;;;;38.45;18.08;;;;;;;12.36;69.78;101796.75;8662234;33;20198;-72
2021/09/22 07:43:38;;;;;;;34.20;18.35;;;;;;;12.74;69.30;101804.09;8663169;33;20145;-74
2021/09/22 07:48:41;;;;;;;38.92;19.35;;;;;;;13.08;67.99;101796.38;8661010;33;21445;-73
2021/09/22 07:53:46;;;;;;;32.60;17.20;;;;;;;12.62;70.01;101795.03;8661224;33;20431;-73
2021/09/22 07:58:49;;;;;;;36.30;18.10;;;;;;;13.13;69.67;101781.59;8661419;33;20191;-73
2021/09/22 08:03:52;;;;;;;35.28;19.05;;;;;;;13.24;69.57;101780.84;8660637;33;20628;-74
2021/09/22 08:08:57;;;;;;;37.65;20.05;;;;;;;13.10;70.82;101778.25;8661585;33;20262;-74
2021/09/22 08:14:00;;;;;;;39.35;18.90;;;;;;;12.94;71.53;101783.84;8705792;33;20688;-73
2021/09/22 08:19:03;;;;;;;37.05;19.20;;;;;;;13.01;71.54;101783.31;8719291;33;20179;-74
2021/09/22 08:24:08;;;;;;;36.03;19.27;;;;;;;14.02;69.19;101777.13;8718416;33;20229;-73
2021/09/22 08:29:11;;;;;;;30.08;17.70;;;;;;;14.23;67.82;101783.59;8718576;33;20278;-73
2021/09/22 08:34:15;;;;;;;33.30;17.60;;;;;;;14.10;68.27;101780.97;8718278;33;21121;-72
2021/09/22 08:39:20;;;;;;;32.80;17.50;;;;;;;13.98;69.45;101772.88;8718548;33;20184;-73
2021/09/22 08:44:23;;;;;;;32.45;16.08;;;;;;;13.65;70.80;101769.84;8718352;33;20148;-73
2021/09/22 08:49:26;;;;;;;34.40;16.05;;;;;;;14.29;69.93;101771.47;8718701;33;20459;-72
2021/09/22 08:54:31;;;;;;;26.92;14.77;;;;;;;14.31;68.88;101774.91;8667223;33;20192;-73
2021/09/22 08:59:34;;;;;;;29.90;15.90;;;;;;;14.46;69.30;101754.88;8660799;33;20484;-73
2021/09/22 09:04:39;;;;;;;28.35;15.38;;;;;;;14.51;68.72;101765.38;8659915;33;20447;-72
2021/09/22 09:09:45;;;;;;;25.95;14.45;;;;;;;14.72;68.52;101766.41;8659757;33;20261;-71
2021/09/22 09:14:55;;;;;;;27.92;14.10;;;;;;;14.09;69.41;101770.25;8659481;33;20141;-72
2021/09/22 09:19:58;;;;;;;25.92;14.45;;;;;;;14.24;69.61;101766.44;8658906;33;20271;-72
2021/09/22 09:25:02;;;;;;;28.67;15.23;;;;;;;14.45;68.17;101766.66;8658174;33;20242;-72
2021/09/22 09:30:16;;;;;;;23.77;13.77;;;;;;;14.55;68.86;101767.69;8657759;33;20197;-72
2021/09/22 09:35:22;;;;;;;23.60;13.98;;;;;;;14.87;67.24;101753.56;8657503;33;20160;-72
2021/09/22 09:40:31;;;;;;;26.17;13.77;;;;;;;15.24;65.67;101747.94;8657137;33;20680;-73
2021/09/22 09:45:38;;;;;;;25.20;14.73;;;;;;;15.98;63.71;101744.72;8658536;33;20747;-72
2021/09/22 09:50:46;;;;;;;25.15;14.25;;;;;;;15.99;62.37;101759.97;8659251;33;20653;-72
2021/09/22 09:55:52;;;;;;;25.75;14.18;;;;;;;16.03;62.61;101743.34;8658238;33;20218;-73
2021/09/22 10:00:57;;;;;;;21.30;12.73;;;;;;;16.02;62.43;101746.22;8658551;33;20184;-72
2021/09/22 10:06:00;;;;;;;22.05;10.75;;;;;;;15.95;61.36;101739.56;8658555;33;20908;-72
2021/09/22 10:11:05;;;;;;;20.58;12.35;;;;;;;15.77;62.95;101720.25;8659113;33;20326;-72
2021/09/22 10:16:08;;;;;;;22.48;13.15;;;;;;;16.06;61.79;101718.69;8658905;33;20279;-72
2021/09/22 10:21:13;;;;;;;19.98;12.10;;;;;;;16.63;60.83;101711.22;8657451;33;20149;-72
2021/09/22 10:26:18;;;;;;;22.83;12.60;;;;;;;16.27;61.49;101713.38;8660828;33;20267;-72
2021/09/22 10:31:37;;;;;;;21.63;12.88;;;;;;;16.38;60.48;101707.03;8664331;33;20183;-72
2021/09/22 10:36:42;;;;;;;20.67;10.77;;;;;;;17.18;59.61;101698.28;8662780;33;20188;-72
2021/09/22 10:41:47;;;;;;;20.33;11.13;;;;;;;17.08;58.31;101691.06;8661999;33;20523;-72
2021/09/22 10:46:50;;;;;;;20.73;10.93;;;;;;;16.18;60.93;101695.16;8662818;33;20229;-73
2021/09/22 10:51:53;;;;;;;18.08;10.88;;;;;;;16.61;59.77;101693.34;8662739;33;20219;-73
2021/09/22 10:57:01;;;;;;;22.83;13.27;;;;;;;17.13;58.69;101676.13;8662077;33;20315;-72
2021/09/22 11:02:07;;;;;;;17.92;10.90;;;;;;;17.87;56.86;101675.75;8663287;33;20180;-72
2021/09/22 11:07:10;;;;;;;19.73;11.20;;;;;;;17.52;57.31;101676.25;8662878;33;20779;-72
2021/09/22 11:12:16;;;;;;;20.88;11.50;;;;;;;16.73;58.77;101679.59;8662469;33;20148;-72
2021/09/22 11:17:24;;;;;;;17.23;10.25;;;;;;;17.63;56.54;101678.84;8661894;33;20175;-72
2021/09/22 11:22:29;;;;;;;22.60;11.55;;;;;;;17.80;55.69;101682.78;8661828;33;20192;-72
2021/09/22 11:27:36;;;;;;;20.60;11.95;;;;;;;17.23;58.14;101687.03;8661213;33;20614;-73
2021/09/22 11:32:43;;;;;;;22.42;11.82;;;;;;;17.52;57.84;101669.97;8660216;33;20681;-73
2021/09/22 11:37:49;;;;;;;19.52;10.68;;;;;;;18.19;56.24;101674.69;8660578;33;20241;-74
2021/09/22 11:43:04;;;;;;;22.00;12.48;;;;;;;18.92;53.73;101655.94;8661159;33;20214;-72
2021/09/22 11:48:09;;;;;;;23.25;11.70;;;;;;;19.22;53.19;101649.38;8662076;33;20257;-73
2021/09/22 11:53:15;;;;;;;18.70;11.32;;;;;;;18.30;54.88;101646.47;8659911;33;20210;-73
2021/09/22 11:58:22;;;;;;;20.15;11.88;;;;;;;17.37;58.28;101650.50;8660758;33;20209;-73
2021/09/22 12:03:29;;;;;;;21.30;12.25;;;;;;;17.40;58.34;101640.19;8660632;33;20639;-73
2021/09/22 12:08:34;;;;;;;21.50;12.35;;;;;;;17.77;56.27;101633.25;8660792;33;21093;-72
2021/09/22 12:13:43;;;;;;;20.95;12.52;;;;;;;17.26;57.81;101637.88;8660360;33;20215;-72
2021/09/22 12:18:51;;;;;;;20.23;12.55;;;;;;;17.57;56.74;101625.06;8660629;33;21013;-72
2021/09/22 12:23:55;;;;;;;19.30;11.65;;;;;;;20.01;50.74;101609.72;8659867;33;20913;-73
2021/09/22 12:29:07;;;;;;;17.77;11.38;;;;;;;20.44;48.86;101612.69;8658671;33;20180;-73
2021/09/22 12:34:19;;;;;;;19.52;12.00;;;;;;;19.30;53.48;101602.31;8659697;33;20184;-73
2021/09/22 12:39:26;;;;;;;14.85;10.98;;;;;;;19.56;51.36;101596.19;8659827;33;20194;-73
2021/09/22 12:44:51;;;;;;;18.50;11.65;;;;;;;18.52;54.44;101594.47;8659225;33;20197;-73
2021/09/22 12:50:10;;;;;;;16.42;11.60;;;;;;;19.14;52.58;101583.06;8660027;33;20196;-74
2021/09/22 12:55:18;;;;;;;16.10;9.50;;;;;;;21.34;48.04;101570.31;8659808;33;21610;-73
2021/09/22 13:00:35;;;;;;;14.05;10.55;;;;;;;23.27;44.02;101566.03;8659385;33;20238;-73
2021/09/22 13:05:40;;;;;;;14.45;10.10;;;;;;;24.02;41.41;101552.47;8659431;33;20795;-74
2021/09/22 13:11:10;;;;;;;13.68;9.82;;;;;;;23.73;42.29;101552.38;8659079;33;20286;-73
2021/09/22 13:16:26;;;;;;;13.00;9.13;;;;;;;24.48;40.29;101543.31;8658797;33;20189;-74
2021/09/22 13:21:30;;;;;;;13.27;9.45;;;;;;;23.73;41.50;101542.25;8659005;33;20206;-73
2021/09/22 13:26:37;;;;;;;13.95;8.55;;;;;;;25.73;40.05;101532.22;8658599;33;20191;-74
2021/09/22 13:31:45;;;;;;;15.00;9.68;;;;;;;25.66;38.57;101524.94;8656988;33;20184;-74
2021/09/22 13:36:48;;;;;;;14.25;10.25;;;;;;;22.45;44.31;101526.09;8658062;33;21029;-73
2021/09/22 13:41:51;;;;;;;13.02;9.88;;;;;;;20.26;48.91;101530.81;8658121;33;20918;-74
2021/09/22 13:46:56;;;;;;;15.20;10.20;;;;;;;19.59;50.75;101525.88;8657742;33;20188;-73
2021/09/22 13:51:59;;;;;;;14.65;9.82;;;;;;;19.24;52.53;101527.50;8657997;33;20452;-73
2021/09/22 13:57:03;;;;;;;18.15;10.93;;;;;;;18.85;53.95;101507.00;8657615;33;20191;-73
2021/09/22 14:02:08;;;;;;;16.27;11.20;;;;;;;18.93;54.09;101497.06;8657576;33;20816;-73
2021/09/22 14:07:15;;;;;;;16.10;10.30;;;;;;;19.57;52.80;101491.59;8656460;33;20211;-73
2021/09/22 14:12:19;;;;;;;17.35;10.40;;;;;;;19.32;52.71;101483.16;8658205;33;20188;-73
2021/09/22 14:17:24;;;;;;;15.88;10.00;;;;;;;22.49;45.56;101474.56;8657840;33;20176;-73
2021/09/22 14:22:27;;;;;;;16.02;9.93;;;;;;;23.04;43.35;101467.28;8657621;33;20234;-73
2021/09/22 14:27:30;;;;;;;13.60;9.20;;;;;;;24.57;41.48;101464.41;8657348;33;20604;-73
2021/09/22 14:32:35;;;;;;;14.82;9.65;;;;;;;24.90;39.00;101468.47;8657061;33;20152;-73
2021/09/22 14:37:39;;;;;;;14.48;10.48;;;;;;;23.62;42.31;101458.50;8657082;33;20240;-73
2021/09/22 14:42:44;;;;;;;15.00;10.25;;;;;;;23.25;42.42;101447.50;8656888;33;20283;-73
2021/09/22 14:47:49;;;;;;;17.27;11.20;;;;;;;21.68;45.64;101440.84;8656929;33;20461;-73
2021/09/22 14:52:54;;;;;;;15.45;10.13;;;;;;;21.89;46.38;101429.41;8656722;33;20192;-73
2021/09/22 14:57:57;;;;;;;18.25;11.95;;;;;;;21.84;45.68;101429.06;8655037;33;20483;-73
2021/09/22 15:03:02;;;;;;;17.48;11.80;;;;;;;21.46;46.59;101420.50;8687996;33;21153;-73
2021/09/22 15:08:07;;;;;;;14.35;10.93;;;;;;;21.23;47.16;101413.00;8714164;33;20194;-73
2021/09/22 15:13:10;;;;;;;17.92;11.38;;;;;;;21.58;46.70;101397.25;8717621;33;20242;-73
2021/09/22 15:18:15;;;;;;;14.20;10.75;;;;;;;21.97;45.56;101395.69;8673349;33;20195;-73
2021/09/22 15:23:18;;;;;;;15.07;9.85;;;;;;;23.14;43.25;101392.06;8660669;33;20151;-73
2021/09/22 15:28:25;;;;;;;14.98;10.35;;;;;;;22.67;43.46;101384.81;8661445;33;20213;-73
2021/09/22 15:33:33;;;;;;;14.93;10.65;;;;;;;21.55;46.58;101380.34;8702503;33;20322;-73
2021/09/22 15:38:36;;;;;;;16.95;11.02;;;;;;;21.85;45.63;101384.25;8713113;33;20187;-73
2021/09/22 15:43:39;;;;;;;13.50;10.45;;;;;;;21.81;46.52;101374.72;8685318;33;20445;-73
2021/09/22 15:48:44;;;;;;;16.80;11.70;;;;;;;21.62;46.65;101382.22;8678444;33;20176;-72
2021/09/22 15:53:47;;;;;;;15.82;10.43;;;;;;;20.48;48.49;101374.75;8683906;33;20237;-74
2021/09/22 15:58:50;;;;;;;13.88;9.88;;;;;;;20.10;50.23;101378.81;8689782;33;20493;-72
2021/09/22 16:03:54;;;;;;;14.95;10.88;;;;;;;20.24;49.88;101370.03;8704775;33;20432;-75
2021/09/22 16:08:58;;;;;;;15.48;10.45;;;;;;;19.81;50.57;101373.72;8718462;33;20270;-73
2021/09/22 16:14:01;;;;;;;16.13;10.60;;;;;;;20.01;50.39;101372.47;8676414;33;20185;-73
2021/09/22 16:19:06;;;;;;;14.75;10.52;;;;;;;19.80;51.86;101359.25;8677536;33;20457;-73
2021/09/22 16:24:09;;;;;;;13.98;9.90;;;;;;;19.56;52.67;101368.13;8668815;33;20206;-73
2021/09/22 16:29:14;;;;;;;22.17;10.35;;;;;;;19.13;52.85;101355.31;8660749;33;20244;-72
2021/09/22 16:34:19;;;;;;;15.32;9.82;;;;;;;18.81;54.27;101354.00;8659761;33;20589;-75
2021/09/22 16:39:24;;;;;;;17.60;11.30;;;;;;;18.38;54.49;101361.00;8659862;33;20405;-73
2021/09/22 16:44:28;;;;;;;15.13;9.80;;;;;;;18.24;56.24;101356.03;8659159;33;20274;-73
2021/09/22 16:49:33;;;;;;;17.27;10.88;;;;;;;17.97;56.50;101352.31;8659324;33;20466;-73
2021/09/22 16:54:37;;;;;;;14.25;10.45;;;;;;;17.84;57.00;101347.19;8657685;33;20716;-73
2021/09/22 16:59:40;;;;;;;17.20;10.30;;;;;;;17.50;58.64;101341.44;8659260;33;20326;-72
2021/09/22 17:04:46;;;;;;;13.20;9.15;;;;;;;17.03;60.25;101333.16;8676871;33;20262;-73
2021/09/22 17:10:11;;;;;;;11.52;8.52;;;;;;;16.77;61.16;101339.16;8705883;33;20262;-73
2021/09/22 17:15:15;;;;;;;12.50;7.60;;;;;;;16.48;61.85;101333.72;8715919;33;20178;-73
2021/09/22 17:20:19;;;;;;;15.50;8.88;;;;;;;16.18;62.70;101326.47;8716518;33;20180;-72
2021/09/22 17:25:23;;;;;;;15.98;8.85;;;;;;;15.86;63.87;101332.06;8716346;33;20136;-74
2021/09/22 17:30:28;;;;;;;13.95;8.77;;;;;;;15.39;65.78;101343.34;8716069;33;20498;-74
2021/09/22 17:35:32;;;;;;;17.08;10.63;;;;;;;15.19;66.20;101345.03;8672037;33;20212;-73
2021/09/22 17:40:36;;;;;;;19.48;12.02;;;;;;;15.20;66.27;101341.34;8658004;33;20169;-72
2021/09/22 17:45:39;;;;;;;16.48;10.85;;;;;;;15.02;66.49;101330.22;8707758;33;20264;-73
2021/09/22 17:50:49;;;;;;;15.25;10.38;;;;;;;14.95;66.52;101341.72;8716071;33;20756;-73
2021/09/22 17:55:52;;;;;;;14.98;10.32;;;;;;;14.84;66.58;101334.50;8680974;33;20184;-74
2021/09/22 18:00:59;;;;;;;13.77;9.25;;;;;;;14.85;66.81;101332.66;8671523;33;20482;-74
2021/09/22 18:06:04;;;;;;;14.20;8.52;;;;;;;14.69;67.13;101338.47;8657444;33;20251;-74
2021/09/22 18:11:07;;;;;;;18.13;10.57;;;;;;;14.51;67.80;101330.94;8657623;33;20129;-74
2021/09/22 18:16:11;;;;;;;16.35;10.02;;;;;;;14.36;68.41;101327.59;8656907;33;20132;-74
2021/09/22 18:21:15;;;;;;;18.55;10.32;;;;;;;14.31;68.55;101319.00;8659879;33;20195;-74
2021/09/22 18:26:19;;;;;;;14.60;10.18;;;;;;;14.27;68.37;101320.25;8658046;33;20165;-74
2021/09/22 18:31:23;;;;;;;15.07;10.98;;;;;;;14.23;68.47;101324.16;8658349;33;20856;-74
2021/09/22 18:36:29;;;;;;;15.90;11.20;;;;;;;14.21;68.63;101315.34;8675071;33;20238;-74
2021/09/22 18:41:32;;;;;;;19.45;11.38;;;;;;;14.26;68.74;101306.84;8703653;33;20725;-74
2021/09/22 18:46:35;;;;;;;17.33;11.15;;;;;;;14.32;68.46;101299.13;8689383;33;20242;-73
2021/09/22 18:51:41;;;;;;;18.50;12.65;;;;;;;14.25;68.82;101300.59;8720734;33;20235;-73
2021/09/22 18:56:45;;;;;;;17.83;12.32;;;;;;;14.16;68.98;101295.94;8715533;33;20963;-74
2021/09/22 19:01:49;;;;;;;20.08;13.80;;;;;;;14.12;69.02;101300.75;8688340;33;20818;-74
2021/09/22 19:06:54;;;;;;;22.55;13.25;;;;;;;14.07;68.91;101304.78;8689615;33;20188;-74
2021/09/22 19:11:59;;;;;;;19.27;13.27;;;;;;;13.99;69.04;101299.16;8689274;33;20184;-74
2021/09/22 19:17:02;;;;;;;17.67;11.00;;;;;;;13.92;68.98;101304.19;8696998;33;20190;-74
2021/09/22 19:22:07;;;;;;;19.50;11.55;;;;;;;13.79;69.18;101319.66;8711314;33;20321;-73
2021/09/22 19:27:10;;;;;;;22.92;13.27;;;;;;;13.68;69.41;101315.97;8718953;33;20136;-73
2021/09/22 19:32:14;;;;;;;21.08;13.00;;;;;;;13.63;69.74;101309.22;8719672;33;20180;-74
2021/09/22 19:37:18;;;;;;;18.80;12.43;;;;;;;13.58;69.49;101295.25;8719332;33;20294;-73
2021/09/22 19:42:22;;;;;;;16.85;11.85;;;;;;;13.50;69.43;101295.84;8718086;33;20260;-74
2021/09/22 19:47:25;;;;;;;18.75;11.30;;;;;;;13.36;70.28;101293.38;8718746;33;20227;-73
2021/09/22 19:52:30;;;;;;;16.95;10.70;;;;;;;13.25;70.35;101300.44;8718874;33;20206;-74
2021/09/22 19:57:34;;;;;;;16.67;10.95;;;;;;;13.16;71.08;101308.38;8717765;33;20286;-74
2021/09/22 20:02:38;;;;;;;14.40;10.18;;;;;;;13.03;71.88;101295.00;8718129;33;20190;-74
2021/09/22 20:07:43;;;;;;;15.95;10.27;;;;;;;12.94;72.15;101298.38;8718898;33;20198;-74
2021/09/22 20:12:47;;;;;;;14.18;9.48;;;;;;;12.93;72.00;101302.09;8719123;33;20206;-74
2021/09/22 20:17:50;;;;;;;18.42;12.07;;;;;;;12.81;72.45;101302.03;8718795;33;20187;-74
2021/09/22 20:22:54;;;;;;;17.90;11.60;;;;;;;12.83;72.37;101299.22;8699600;33;20347;-74
2021/09/22 20:27:57;;;;;;;18.92;10.82;;;;;;;12.93;71.75;101294.00;8659223;33;20700;-74
2021/09/22 20:33:01;;;;;;;19.63;13.77;;;;;;;12.98;71.11;101281.88;8669059;33;20192;-74
2021/09/22 20:38:06;;;;;;;19.83;13.93;;;;;;;13.04;70.55;101276.00;8681134;33;20199;-74
2021/09/22 20:43:09;;;;;;;22.50;13.50;;;;;;;13.08;70.24;101273.91;8682543;33;20157;-74
2021/09/22 20:48:12;;;;;;;18.90;11.93;;;;;;;13.09;69.84;101272.09;8699459;33;20467;-74
2021/09/22 20:53:17;;;;;;;22.15;14.18;;;;;;;12.94;69.93;101269.59;8718270;33;20553;-74
2021/09/22 20:58:21;;;;;;;20.23;12.88;;;;;;;12.78;70.22;101280.72;8718059;33;20156;-74
2021/09/22 21:03:24;;;;;;;16.67;12.13;;;;;;;12.70;70.66;101268.75;8717088;33;20188;-74
2021/09/22 21:08:29;;;;;;;19.38;12.68;;;;;;;12.53;71.20;101260.16;8721698;33;20354;-74
2021/09/22 21:13:32;;;;;;;24.65;14.50;;;;;;;12.47;71.62;101255.19;8718270;33;20219;-74
2021/09/22 21:18:35;;;;;;;20.58;13.32;;;;;;;12.57;70.87;101242.75;8716681;33;20183;-74
2021/09/22 21:23:39;;;;;;;23.52;14.80;;;;;;;12.54;70.82;101244.84;8716678;33;20219;-74
2021/09/22 21:28:42;;;;;;;26.52;15.75;;;;;;;12.51;70.63;101243.22;8716714;33;20266;-74
2021/09/22 21:33:49;;;;;;;26.15;15.90;;;;;;;12.46;70.10;101228.38;8716872;33;20192;-74
2021/09/22 21:38:53;;;;;;;28.15;15.25;;;;;;;12.53;69.63;101218.84;8716856;33;20664;-74
2021/09/22 21:43:57;;;;;;;22.20;14.45;;;;;;;12.64;69.03;101223.41;8716585;33;20156;-74
2021/09/22 21:49:00;;;;;;;27.02;15.63;;;;;;;12.60;69.15;101210.19;8716500;33;20190;-74
2021/09/22 21:54:04;;;;;;;26.70;15.10;;;;;;;12.48;69.75;101197.66;8716293;33;20222;-74
2021/09/22 21:59:07;;;;;;;21.60;13.85;;;;;;;12.33;70.44;101191.56;8714973;33;20305;-74
2021/09/22 22:04:11;;;;;;;28.35;16.38;;;;;;;12.23;70.60;101184.28;8715788;33;20234;-74
2021/09/22 22:09:16;;;;;;;21.98;14.95;;;;;;;12.28;70.29;101179.41;8715837;33;20213;-74
2021/09/22 22:14:20;;;;;;;27.45;16.35;;;;;;;12.16;70.42;101178.50;8715272;33;20211;-73
2021/09/22 22:19:23;;;;;;;25.70;16.85;;;;;;;12.13;70.31;101171.50;8715396;33;20183;-73
2021/09/22 22:24:27;;;;;;;26.63;15.48;;;;;;;11.90;70.60;101189.41;8719904;33;20218;-74
2021/09/22 22:29:30;;;;;;;29.48;16.85;;;;;;;12.05;70.28;101197.31;8719036;33;20152;-74
2021/09/22 22:34:34;;;;;;;29.73;16.13;;;;;;;11.96;70.66;101196.16;8719973;33;20183;-74
2021/09/22 22:39:38;;;;;;;26.42;16.40;;;;;;;11.96;70.51;101185.38;8719023;33;20179;-73
2021/09/22 22:44:41;;;;;;;27.15;16.40;;;;;;;11.98;70.32;101171.78;8720617;33;20682;-74
2021/09/22 22:49:44;;;;;;;30.50;17.35;;;;;;;11.94;70.37;101180.09;8718643;33;20617;-73
2021/09/22 22:54:49;;;;;;;31.60;17.10;;;;;;;11.80;70.71;101163.25;8719016;33;20136;-73
2021/09/22 22:59:52;;;;;;;30.13;17.23;;;;;;;11.77;70.94;101180.50;8719696;33;20191;-74
2021/09/22 23:04:55;;;;;;;30.42;16.90;;;;;;;11.67;71.13;101180.31;8717788;33;20192;-73
2021/09/22 23:09:59;;;;;;;29.77;16.92;;;;;;;11.79;70.57;101183.91;8719992;33;20961;-73
2021/09/22 23:15:10;;;;;;;32.75;17.83;;;;;;;11.68;70.88;101183.84;8719339;33;20837;-73
2021/09/22 23:20:18;;;;;;;28.85;18.00;;;;;;;11.69;70.76;101175.66;8719202;33;22102;-73